Weather observations for the past three days for
Osceola Municipal Airport
Metric (Imperial)
Date Time (cdt) Wind (kph) Vis. (km) Weather Sky Cond. Temperature (ºC) Relative Humidity Wind Chill (°C) Heat Index (°C) Pressure Precipitation (cm)
Air Dwpt 6 hour altimeter (cm) sea level (mb) 1 hr 3 hr 6 hr
Max. Min.
04 19:15 NW 19 G 30 11.27 Fair CLR 23 1.4 24% 75.16 0.0
04 18:55 N 30 G 39 11.27 Fair CLR 24.1 0.9 28.5 24.1 22% 25 75.13 0.0
04 18:35 N 28 G 43 16.09 Fair CLR 25 2.1 22% 25 75.13 0.0
04 18:15 NW 31 G 39 16.09 Fair CLR 26.3 3.4 23% 26 75.08 0.0
04 17:55 NW 24 G 31 16.09 Fair CLR 27 3.6 22% 26 75.08 0.0
04 17:35 NW 20 11.27 Fair CLR 27.5 3.5 21% 26 75.06 0.0
04 17:15 W 19 11.27 Fair CLR 27.3 0.8 18% 26 75.03 0.0
04 16:55 W 24 G 31 16.09 Fair CLR 27.6 0.7 17% 26 75.03 0.0
04 16:30 W 20 G 33 16.09 Partly Cloudy SCT100 28 0.8 17% 27 75.03 0.0
04 16:15 W 28 G 37 11.27 Partly Cloudy SCT100 27.9 2 19% 27 75.03 0.0
04 15:55 W 19 G 35 11.27 Partly Cloudy SCT095 27.3 3.9 22% 26 75.03 0.0
04 15:35 W 19 11.27 Partly Cloudy SCT095 28.3 4.9 22% 27 75.06 0.0
04 15:15 W 19 G 30 11.27 Partly Cloudy SCT095 27.5 4.3 23% 26 75.06 0.0
04 14:55 W 24 G 33 16.09 Partly Cloudy SCT085 27.9 5.7 24% 27 75.06 0.0
04 14:35 W 20 G 28 16.09 Partly Cloudy SCT085 27.9 6.1 25% 27 75.08 0.0
04 14:15 SW 20 G 30 16.09 Partly Cloudy SCT085 SCT100 28.4 5.6 23% 27 75.08 0.0
04 13:55 W 19 G 30 16.09 Fair CLR 27.7 5.7 25% 27 75.08 0.0
04 13:35 SW 19 G 26 16.09 Fair CLR 27.7 6.6 26% 27 75.11 0.0
04 13:15 SW 17 G 28 16.09 Fair CLR 27.1 7.9 30% 26 75.11 0.0
04 12:55 SW 20 G 28 11.27 Fair CLR 26.7 7.5 26.9 12.6 30% 26 75.11 0.0
04 12:35 SW 17 11.27 Fair CLR 26.5 8.5 32% 26 75.11 0.0
04 12:15 SW 15 11.27 Fair CLR 26.4 9.1 34% 26 75.11 0.0
04 11:55 S 17 16.09 Fair CLR 25.9 7.6 31% 26 75.11 0.0
04 11:35 SW 15 11.27 Fair CLR 25.1 8.1 34% 26 75.11 0.0
04 11:15 SW 15 11.27 Fair CLR 24.5 9.3 38% 25 75.11 0.0
04 10:55 SW 9 11.27 Fair CLR 23.5 8.8 39% 75.13 0.0
04 10:35 SW 15 16.09 Fair CLR 22.8 9.3 42% 75.13 0.0
04 10:15 SW 13 11.27 Fair CLR 21.9 9.2 44% 75.13 0.0
04 09:55 SW 17 11.27 Fair CLR 21.2 9 46% 75.16 0.0
04 09:35 SW 22 11.27 Fair CLR 20.5 8 45% 75.16 0.0
04 09:15 SW 22 11.27 Fair CLR 20.3 8.2 46% 75.16 0.0
04 08:55 SW 15 11.27 Fair CLR 19.2 8.4 50% 75.16 0.0
04 08:35 S 15 16.09 Fair CLR 18.1 8.3 53% 75.18 0.0
04 08:15 S 15 11.27 Fair CLR 16.3 7.2 55% 75.18 0.0
04 07:55 S 13 11.27 Fair CLR 15.6 6.7 56% 75.18 0.0
04 07:35 S 13 11.27 Fair CLR 14.7 6.2 57% 75.18 0.0
04 07:15 S 13 11.27 Fair CLR 13.6 5.7 59% 75.18 0.0
04 06:55 S 13 16.09 Fair CLR 12.5 5.4 12.5 9.9 62% 75.21 0.0
04 06:35 S 11 16.09 Fair CLR 11.1 5.1 67% 75.21 0.0
04 06:15 S 9 16.09 Fair CLR 10.4 5 69% 75.21 0.0
04 05:55 S 9 16.09 Fair CLR 10.5 4.5 67% 75.23 0.0
04 05:35 S 9 16.09 Fair CLR 10.1 4.2 67% 75.23 0.0
04 05:15 S 9 16.09 Fair CLR 11.4 4.4 62% 75.26 0.0
04 04:55 S 11 16.09 Fair CLR 11.2 4.4 63% 75.26 0.0
04 04:35 S 11 16.09 Fair CLR 12.2 4.2 58% 75.31 0.0
04 04:15 S 11 16.09 Fair CLR 11.9 4.3 60% 75.34 0.0
04 03:55 S 11 16.09 Fair CLR 10.9 4.5 65% 75.36 0.0
04 03:35 S 9 16.09 Fair CLR 11.4 4.5 63% 75.36 0.0
04 03:15 S 11 16.09 Fair CLR 11.6 4.3 61% 75.39 0.0
04 02:55 S 7 16.09 Fair CLR 11 4.2 63% 75.41 0.0
04 02:35 S 9 16.09 Fair CLR 12.3 4 57% 75.41 0.0
04 02:15 SW 7 16.09 Fair CLR 12.1 4.1 58% 75.44 0.0
04 01:55 S 9 16.09 Fair CLR 11.7 4.5 62% 75.46 0.0
04 01:35 S 9 16.09 Fair CLR 11.9 4.5 61% 75.49 0.0
04 01:15 SW 9 16.09 Fair CLR 11.6 4.8 63% 75.51 0.0
04 00:55 SW 7 16.09 Fair CLR 12.1 4.4 21.7 12 60% 75.54 0.0
04 00:35 SW 9 16.09 Fair CLR 12.4 4.4 58% 75.54 0.0
04 00:15 SW 7 16.09 Fair CLR 13.3 3.5 52% 75.54 0.0
03 23:55 SW 9 16.09 Fair CLR 12.7 4 56% 75.54 0.0
03 23:35 SW 7 16.09 Fair CLR 15 2.6 44% 75.54 0.0
03 23:15 SW 7 16.09 Fair CLR 14.4 2.9 46% 75.57 0.0
03 22:55 SW 9 11.27 Fair CLR 13.3 4 54% 75.59 0.0
03 22:35 SW 9 16.09 Fair CLR 13.2 3.9 54% 75.62 0.0
03 22:15 SW 9 16.09 Fair CLR 14.4 3.4 48% 75.62 0.0
03 21:55 S 9 11.27 Fair CLR 13.8 4.1 52% 75.64 0.0
03 21:35 SW 9 16.09 Fair CLR 15 3.3 46% 75.62 0.0
03 21:15 SW 11 16.09 Fair CLR 15.6 3.2 44% 75.62 0.0
03 20:55 SW 11 11.27 Fair CLR 15.6 3.8 46% 75.62 0.0
03 20:35 SW 7 16.09 Fair CLR 17.1 3.4 40% 75.62 0.0
03 20:15 SW 7 8.05 Fair with Haze CLR 18.5 2.8 35% 75.59 0.0
03 19:55 SW 6 11.27 Fair CLR 19.2 1.9 32% 75.62 0.0
03 19:35 SW 9 16.09 Fair CLR 20.1 1.4 29% 75.62 0.0
03 19:15 W 9 16.09 Fair CLR 21.1 0.9 26% 75.62 0.0
03 18:55 W 13 11.27 Fair CLR 21.5 1.5 24 20.6 27% 75.64 0.0
03 18:35 W 13 16.09 Fair CLR 21.2 1.4 27% 75.64 0.0
03 18:15 W 15 16.09 Fair CLR 22.1 1.2 25% 75.64 0.0
03 17:55 W 17 16.09 Fair CLR 22.8 0.5 23% 75.67 0.0
03 17:35 W 13 16.09 Fair CLR 22.3 0.4 23% 75.67 0.0
03 17:15 W 17 G 26 16.09 Fair CLR 22.6 0.5 23% 75.67 0.0
03 16:55 NW 17 16.09 Fair CLR 22.2 0.1 23% 75.67 0.0
03 16:35 NW 13 11.27 Fair CLR 22.8 0.1 22% 75.67 0.0
03 16:15 W 19 G 31 11.27 Fair CLR 23.5 0.2 21% 75.67 0.0
03 15:55 NW 22 G 30 16.09 Fair CLR 22.7 -0.6 21% 75.67 0.0
03 15:35 W 26 G 31 8.05 Fair with Haze CLR 23.9 0 21% 24 75.69 0.0
03 15:15 W 17 G 31 16.09 Fair CLR 22.3 2.5 27% 75.72 0.0
03 14:55 W 19 11.27 Fair CLR 22.6 2.6 27% 75.72 0.0
03 14:35 W 26 11.27 Fair CLR 22.7 3.1 28% 75.72 0.0
03 14:15 NW 20 G 43 16.09 Fair CLR 22.5 1.3 25% 75.74 0.0
03 13:55 W 19 G 39 11.27 Fair CLR 22.7 1.6 25% 75.74 0.0
03 13:35 W 28 G 37 11.27 Fair CLR 21.9 2.9 29% 75.74 0.0
03 13:15 W 22 G 28 8.05 Fair with Haze CLR 21.3 5 35% 75.77 0.0
03 12:55 W 20 G 31 16.09 Fair CLR 20.8 4.6 20.8 11.5 35% 75.74 0.0
03 12:35 W 20 G 35 8.05 Fair with Haze CLR 20.1 4.4 36% 75.79 0.0
03 12:15 SW 24 G 31 11.27 Fair CLR 19.7 5.5 40% 75.77 0.0
03 11:55 SW 22 G 30 11.27 Fair CLR 17.6 5 44% 75.79 0.0
03 11:35 SW 20 G 28 11.27 Fair CLR 17.1 4.7 44% 75.79 0.0
03 11:15 SW 22 11.27 Fair CLR 16.7 4.5 45% 75.82 0.0
03 10:55 W 28 G 35 16.09 Fair CLR 16.3 3.9 44% 75.82 0.0
03 10:35 SW 24 11.27 Fair CLR 16.9 4.7 45% 75.79 0.0
03 10:15 SW 22 G 33 8.05 Fair with Haze CLR 15 4 48% 75.82 0.0
03 09:55 SW 20 G 30 16.09 Fair CLR 13.6 3 49% 75.77 0.0
03 09:35 SW 26 16.09 Fair CLR 13.1 2.5 49% 75.79 0.0
03 09:15 SW 33 G 46 16.09 Fair and Breezy CLR 13.5 2.1 46% 75.79 0.0
03 08:55 SW 30 G 44 16.09 Fair CLR 12.7 1.7 47% 75.79 0.0
03 08:35 SW 28 G 37 16.09 Fair CLR 12.4 1.5 48% 75.82 0.0
03 08:15 SW 28 G 39 16.09 Fair CLR 12 1.1 48% 75.84 0.0
03 07:55 SW 24 G 35 16.09 Fair CLR 11.6 1 48% 75.87 0.0
03 07:35 SW 30 G 39 16.09 Fair CLR 11.5 0.6 47% 75.84 0.0
03 07:15 SW 28 G 39 16.09 Fair CLR 11.6 0.2 46% 75.84 0.0
03 06:55 S 33 G 43 16.09 Fair and Breezy CLR 11.6 0 11.6 8.9 45% 75.82 0.0
03 06:35 S 28 G 37 16.09 Fair CLR 11.5 0 45% 75.79 0.0
03 06:15 S 30 G 37 16.09 Fair CLR 11.5 0 45% 75.79 0.0
03 05:55 S 31 G 39 16.09 Fair CLR 11.2 0 46% 75.82 0.0
03 05:35 S 26 G 43 16.09 Fair CLR 11.1 0 47% 75.84 0.0
03 05:15 S 31 G 41 16.09 Fair CLR 11.2 0 46% 75.87 0.0
03 04:55 S 30 16.09 Fair CLR 11.2 0 46% 75.9 0.0
03 04:35 S 24 16.09 Fair CLR 11 0 47% 75.92 0.0
03 04:15 S 19 16.09 Fair CLR 10.5 0.1 49% 75.95 0.0
03 03:55 S 17 16.09 Fair CLR 10.2 0.2 50% 75.97 0.0
03 03:35 S 20 16.09 Fair CLR 10.1 0 50% 75.92 0.0
03 03:15 S 24 16.09 Fair CLR 10.3 -0.2 48% 75.97 0.0
03 02:55 S 24 16.09 Fair CLR 10.1 -0.1 49% 75.97 0.0
03 02:35 S 22 16.09 Fair CLR 9.6 0 52% 7 76 0.0
03 02:15 S 17 16.09 Fair CLR 9 0 54% 7 76.02 0.0
03 01:55 S 15 16.09 Fair CLR 9.2 -0.3 52% 7 76.05 0.0
03 01:35 S 15 16.09 Fair CLR 9.4 -0.4 51% 7 76.07 0.0
03 01:15 S 17 16.09 Fair CLR 9.7 -0.6 49% 8 76.1 0.0
03 00:55 S 15 16.09 Fair CLR 10 -0.7 16.3 9.7 48% 8 76.1 0.0
03 00:35 S 15 16.09 Fair CLR 10 -0.7 48% 8 76.12 0.0
03 00:15 S 15 16.09 Fair CLR 10.3 -0.8 46% 76.15 0.0
02 23:55 S 15 16.09 Fair CLR 10.4 -0.6 47% 76.15 0.0
02 23:35 S 13 16.09 Fair CLR 10.2 -0.3 48% 76.17 0.0
02 23:15 S 13 16.09 Fair CLR 10.2 -0.1 49% 76.17 0.0
02 22:55 S 11 16.09 Fair CLR 10.2 0 49% 76.2 0.0
02 22:35 S 11 16.09 Partly Cloudy SCT120 10 0.1 51% 9 76.2 0.0
02 22:15 S 11 11.27 Partly Cloudy SCT120 10.9 0 47% 76.23 0.0
02 21:55 S 11 11.27 Fair CLR 11.1 -0.2 46% 76.25 0.0
02 21:35 S 9 11.27 Fair CLR 10.9 0 47% 76.25 0.0
02 21:15 S 9 16.09 Fair CLR 11.8 -0.4 43% 76.25 0.0
02 20:55 S 9 16.09 Fair CLR 12.1 0 44% 76.25 0.0
02 20:35 S 9 16.09 Fair CLR 12.2 0 43% 76.25 0.0
02 20:15 S 11 16.09 Fair CLR 12.8 0.4 43% 76.25 0.0
02 19:55 SW 7 11.27 Fair CLR 14.1 -1.2 35% 76.25 0.0
02 19:35 SW 9 16.09 Fair CLR 15 -2.2 31% 76.25 0.0
02 19:15 SW 9 16.09 Fair CLR 15.9 -3 27% 76.25 0.0
02 18:55 SW 9 11.27 Fair CLR 16.3 -3.2 17.1 13.7 26% 76.28 0.0
02 18:35 SW 17 11.27 Fair CLR 16.7 -3 26% 76.28 0.0
02 18:15 W 13 11.27 Fair CLR 16.7 -3.7 25% 76.3 0.0
02 17:55 SW 15 16.09 Fair CLR 17 -3.4 25% 76.3 0.0
02 17:35 W 9 G 26 11.27 Fair CLR 17 -2.8 26% 76.33 0.0
02 17:15 SW 11 11.27 Fair CLR 16.8 -2.7 26% 76.33 0.0
02 16:55 W 11 11.27 Fair CLR 16.9 -2.6 26% 76.33 0.0
02 16:35 W 13 11.27 Fair CLR 17 -2.5 26% 76.35 0.0
02 16:15 SW 7 11.27 Fair CLR 16.8 -3.2 25% 76.38 0.0
02 15:55 W 11 11.27 Fair CLR 16.5 -3.5 25% 76.4 0.0
02 15:35 W 9 11.27 Fair CLR 16.1 -4.1 25% 76.43 0.0
02 15:15 Calm 11.27 Fair CLR 15.8 -4.4 25% 76.43 0.0
02 14:55 W 13 11.27 Fair CLR 15.5 -4.1 26% 76.45 0.0
02 14:35 Calm 11.27 Fair CLR 15.6 -4.1 26% 76.48 0.0
02 14:15 W 19 16.09 Fair CLR 15.3 -3.2 28% 76.48 0.0
02 13:55 NW 15 11.27 Fair CLR 14.7 -3.9 28% 76.5 0.0
02 13:35 NW 17 11.27 Fair CLR 14.8 -3.3 29% 76.53 0.0
02 13:15 NW 11 11.27 Fair CLR 14.5 -3.8 28% 76.53 0.0
02 12:55 SW 9 16.09 Fair CLR 14.3 -3.8 14.4 2.1 29% 76.56 0.0
02 12:35 W 17 11.27 Fair CLR 14 -3.5 30% 76.58 0.0
02 12:15 NW 6 11.27 Fair CLR 13.4 -3.8 30% 76.58 0.0
02 11:55 SW 13 11.27 Fair CLR 13.4 -3.4 31% 76.58 0.0
02 11:35 Calm 11.27 Fair CLR 12.7 -4.7 30% 76.61 0.0
02 11:15 N 6 11.27 Fair CLR 12.5 -4.8 30% 76.61 0.0
02 10:55 Calm 11.27 Fair CLR 12.5 -4.4 31% 76.61 0.0
02 10:35 W 15 11.27 Fair CLR 12.6 -3.9 32% 76.61 0.0
02 10:15 W 9 11.27 Fair CLR 12 -4.7 31% 76.61 0.0
02 09:55 Calm 11.27 Fair CLR 11.7 -3.8 34% 76.61 0.0
02 09:35 W 7 11.27 Fair CLR 11.1 -3.7 36% 76.61 0.0
02 09:15 Calm 11.27 Fair CLR 9.8 -0.4 49% 76.61 0.0
02 08:55 N 6 8.05 Fair with Haze CLR 8.8 0.2 55% 76.61 0.0
02 08:35 Calm 11.27 Fair CLR 7.6 0.4 61% 76.61 0.0
02 08:15 NW 7 11.27 Fair CLR 6.4 0.2 65% 5 76.61 0.0
02 07:55 NW 9 8.05 Fair with Haze CLR 5 0 70% 3 76.61 0.0
02 07:35 NW 7 8.05 Fair with Haze CLR 4.1 0.1 75% 3 76.61 0.0
02 07:15 NW 11 11.27 Fair CLR 2.5 -0.2 83% -0 76.58 0.0
02 06:55 NW 11 11.27 Fair CLR 2.1 -0.6 6.1 0.8 83% -1 76.56 0.0
02 06:35 NW 9 11.27 Fair CLR 1 -1.1 86% -2 76.53 0.0
02 06:15 NW 9 11.27 Fair CLR 0.8 -1.1 87% -2 76.53 0.0
02 05:55 W 9 16.09 Fair CLR 0.8 -1.2 87% -2 76.53 0.0
02 05:35 W 9 11.27 Fair CLR 1 -0.9 87% -2 76.53 0.0
02 05:15 NW 9 11.27 Fair CLR 1.7 -0.9 83% -1 76.5 0.0
02 04:55 NW 7 16.09 Fair CLR 2.6 -0.4 81% 1 76.5 0.0
02 04:35 NW 9 11.27 Fair CLR 2.5 -0.6 80% 0 76.5 0.0
02 04:15 NW 9 11.27 Fair CLR 2.5 -0.6 80% 0 76.5 0.0
02 03:55 NW 9 11.27 Fair CLR 3.5 -0.4 76% 1 76.5 0.0
02 03:35 NW 11 11.27 Fair CLR 3.3 -0.4 77% 1 76.48 0.0
02 03:15 NW 9 16.09 Fair CLR 4.5 -0.1 72% 3 76.48 0.0
02 02:55 NW 11 11.27 Fair CLR 4.3 0 74% 2 76.48 0.0
02 02:35 NW 7 11.27 Fair CLR 4.4 0 73% 3 76.48 0.0
02 02:15 NW 9 11.27 Fair CLR 4.1 0 75% 2 76.48 0.0
02 01:55 NW 11 11.27 Fair CLR 5.4 0.1 69% 3 76.5 0.0
02 01:35 NW 7 16.09 Fair CLR 5.5 0.2 69% 4 76.48 0.0
02 01:15 W 9 11.27 Partly Cloudy SCT090 5.6 0.7 71% 4 76.5 0.0
02 00:55 W 7 11.27 Overcast OVC090 6.2 0.6 12.9 6.2 68% 5 76.48 0.0
02 00:35 W 6 16.09 Overcast SCT075 OVC090 6.6 1 68% 76.48 0.0
02 00:15 W 6 11.27 Overcast SCT075 OVC090 7 0.9 65% 76.48 0.0
01 23:55 Calm 16.09 Mostly Cloudy SCT065 BKN090 8 0 57% 76.48 0.0
01 23:35 NW 7 16.09 Overcast BKN065 OVC090 7.2 1 65% 6 76.45 0.0
01 23:15 Calm 16.09 Overcast SCT065 OVC090 8.2 1.3 62% 76.45 0.0
01 22:55 Calm 11.27 Overcast OVC090 8.5 1.2 60% 76.45 0.0
01 22:35 N 6 16.09 Overcast OVC090 9 0.6 56% 76.45 0.0
01 22:15 Calm 16.09 Overcast SCT070 OVC090 9 0.6 56% 76.43 0.0
01 21:55 Calm 16.09 Overcast BKN070 OVC080 9.3 1.6 59% 76.43 0.0
01 21:35 N 7 11.27 Overcast OVC070 9.5 0.7 55% 9 76.4 0.0
01 21:15 N 7 11.27 Overcast BKN070 OVC095 9.2 0.9 56% 8 76.4 0.0
01 20:55 N 6 16.09 Overcast SCT070 OVC095 9 1 58% 76.38 0.0
01 20:15 N 9 11.27 Partly Cloudy SCT095 10.3 0 49% 76.33 0.0
01 19:55 N 9 11.27 Partly Cloudy SCT095 11.1 -0.1 46% 76.3 0.0
01 19:35 N 9 16.09 Partly Cloudy SCT070 SCT095 12 -0.2 43% 76.28 0.0
Date Time (cdt) Wind (kph) Vis. (km) Weather Sky Cond. Air Dwpt Max. Min. Relative Humidity Wind Chill (°C) Heat Index (°C) altimeter (cm) sea level (mb) 1 hr 3 hr 6 hr
6 hour
Temperature (ºC) Pressure Precipitation (cm)